createdAt,value
2018-09-03T00:00:26.475Z,20.90
2018-09-03T00:02:54.553Z,20.90
2018-09-03T00:05:22.690Z,20.90
2018-09-03T00:07:50.776Z,20.80
2018-09-03T00:10:18.871Z,20.80
2018-09-03T00:12:46.996Z,20.80
2018-09-03T00:15:15.047Z,20.80
2018-09-03T00:17:43.121Z,20.80
2018-09-03T00:20:11.225Z,20.80
2018-09-03T00:22:39.273Z,20.80
2018-09-03T00:25:08.059Z,20.80
2018-09-03T00:27:36.117Z,20.80
2018-09-03T00:30:04.223Z,20.80
2018-09-03T00:32:37.843Z,20.80
2018-09-03T00:35:11.743Z,20.80
2018-09-03T00:37:45.446Z,20.70
2018-09-03T00:40:19.171Z,20.70
2018-09-03T00:42:52.744Z,20.70
2018-09-03T00:45:26.185Z,20.60
2018-09-03T00:47:54.260Z,20.60
2018-09-03T00:50:22.373Z,20.60
2018-09-03T00:52:50.470Z,20.60
2018-09-03T00:55:18.589Z,20.70
2018-09-03T00:57:46.672Z,20.60
2018-09-03T01:00:14.741Z,20.60
2018-09-03T01:02:42.845Z,20.60
2018-09-03T01:05:10.899Z,20.60
2018-09-03T01:07:39.060Z,20.60
2018-09-03T01:10:07.123Z,20.60
2018-09-03T01:12:35.199Z,20.60
2018-09-03T01:15:03.284Z,20.60
2018-09-03T01:17:31.421Z,20.60
2018-09-03T01:19:59.534Z,20.60
2018-09-03T01:22:27.652Z,20.60
2018-09-03T01:24:55.830Z,20.60
2018-09-03T01:27:23.852Z,20.60
2018-09-03T01:29:52.054Z,20.60
2018-09-03T01:32:20.162Z,20.60
2018-09-03T01:34:48.210Z,20.60
2018-09-03T01:37:16.297Z,20.60
2018-09-03T01:39:44.343Z,20.60
2018-09-03T01:42:12.431Z,20.60
2018-09-03T01:44:40.519Z,20.60
2018-09-03T01:47:08.656Z,20.60
2018-09-03T01:49:36.779Z,20.60
2018-09-03T01:52:04.836Z,20.60
2018-09-03T01:54:32.921Z,20.60
2018-09-03T01:57:01.093Z,20.60
2018-09-03T01:59:29.136Z,20.60
2018-09-03T02:01:57.248Z,20.60
2018-09-03T02:04:25.320Z,20.60
2018-09-03T02:06:53.394Z,20.60
2018-09-03T02:09:21.479Z,20.60
2018-09-03T02:11:49.681Z,20.60
2018-09-03T02:14:17.721Z,20.60
2018-09-03T02:16:45.794Z,20.60
2018-09-03T02:19:13.873Z,20.60
2018-09-03T02:21:41.952Z,20.60
2018-09-03T02:24:10.048Z,20.50
2018-09-03T02:26:38.119Z,20.50
2018-09-03T02:29:06.244Z,20.50
2018-09-03T02:31:34.300Z,20.50
2018-09-03T02:34:02.370Z,20.50
2018-09-03T02:36:30.451Z,20.50
2018-09-03T02:38:58.519Z,20.50
2018-09-03T02:41:26.580Z,20.50
2018-09-03T02:43:54.678Z,20.50
2018-09-03T02:46:22.744Z,20.50
2018-09-03T02:48:51.452Z,20.40
2018-09-03T02:51:19.501Z,20.40
2018-09-03T02:53:47.569Z,20.40
2018-09-03T02:56:15.639Z,20.40
2018-09-03T02:58:43.714Z,20.40
2018-09-03T03:01:11.783Z,20.40
2018-09-03T03:03:39.851Z,20.30
2018-09-03T03:06:07.951Z,20.40
2018-09-03T03:08:36.068Z,20.30
2018-09-03T03:11:04.120Z,20.30
2018-09-03T03:13:32.178Z,20.30
2018-09-03T03:16:00.239Z,20.20
2018-09-03T03:18:28.375Z,20.20
2018-09-03T03:20:56.444Z,20.20
2018-09-03T03:23:24.555Z,20.20
2018-09-03T03:25:52.642Z,20.10
2018-09-03T03:28:20.702Z,20.10
2018-09-03T03:30:48.780Z,20.10
2018-09-03T03:33:16.904Z,20.00
2018-09-03T03:35:44.953Z,20.00
2018-09-03T03:38:13.055Z,19.90
2018-09-03T03:40:41.165Z,19.90
2018-09-03T03:43:09.286Z,19.90
2018-09-03T03:45:37.355Z,19.80
2018-09-03T03:48:05.532Z,19.80
2018-09-03T03:50:33.621Z,19.70
2018-09-03T03:53:01.735Z,19.70
2018-09-03T03:55:29.811Z,19.70
2018-09-03T03:57:57.902Z,19.60
2018-09-03T04:00:25.985Z,19.60
2018-09-03T04:02:54.032Z,19.50
2018-09-03T04:05:22.147Z,19.50
2018-09-03T04:07:50.258Z,19.50
2018-09-03T04:10:18.348Z,19.40
2018-09-03T04:12:51.963Z,19.40
2018-09-03T04:15:20.142Z,19.30
2018-09-03T04:17:48.257Z,19.30
2018-09-03T04:20:16.367Z,19.20
2018-09-03T04:22:44.486Z,19.20
2018-09-03T04:25:12.609Z,19.10
2018-09-03T04:27:40.664Z,19.10
2018-09-03T04:30:08.771Z,19.00
2018-09-03T04:32:36.867Z,19.00
2018-09-03T04:35:04.982Z,19.00
2018-09-03T04:37:33.060Z,19.00
2018-09-03T04:40:01.132Z,18.90
2018-09-03T04:42:29.214Z,18.90
2018-09-03T04:44:57.315Z,18.90
2018-09-03T04:47:25.352Z,18.90
2018-09-03T04:49:53.466Z,18.80
2018-09-03T04:52:21.536Z,18.80
2018-09-03T04:54:49.781Z,18.80
2018-09-03T04:57:17.778Z,18.90
2018-09-03T04:59:45.836Z,18.90
2018-09-03T05:02:14.176Z,18.80
2018-09-03T05:04:42.256Z,18.90
2018-09-03T05:07:10.368Z,18.90
2018-09-03T05:09:38.485Z,18.90
2018-09-03T05:12:06.844Z,18.90
2018-09-03T05:14:34.941Z,18.90
2018-09-03T05:17:03.020Z,18.90
2018-09-03T05:19:32.118Z,19.00
2018-09-03T05:22:00.279Z,19.00
2018-09-03T05:24:28.346Z,19.00
2018-09-03T05:26:56.440Z,19.10
2018-09-03T05:29:24.940Z,19.10
2018-09-03T05:31:53.067Z,19.20
2018-09-03T05:34:21.133Z,19.20
2018-09-03T05:36:49.184Z,19.30
2018-09-03T05:39:17.260Z,19.30
2018-09-03T05:41:45.349Z,19.30
2018-09-03T05:44:13.420Z,19.40
2018-09-03T05:46:41.465Z,19.50
2018-09-03T05:49:09.618Z,19.60
2018-09-03T05:51:37.748Z,19.70
2018-09-03T05:54:05.828Z,19.70
2018-09-03T05:56:33.888Z,19.80
2018-09-03T05:59:01.951Z,19.80
2018-09-03T06:01:30.013Z,19.80
2018-09-03T06:03:58.063Z,19.80
2018-09-03T06:06:26.144Z,19.90
2018-09-03T06:08:54.199Z,19.90
2018-09-03T06:11:22.274Z,20.00
2018-09-03T06:13:50.345Z,20.00
2018-09-03T06:16:18.602Z,20.00
2018-09-03T06:18:46.696Z,20.20
2018-09-03T06:21:14.812Z,20.20
2018-09-03T06:23:42.857Z,20.30
2018-09-03T06:26:11.020Z,20.40
2018-09-03T06:28:39.145Z,20.40
2018-09-03T06:31:07.207Z,20.50
2018-09-03T06:33:35.322Z,20.50
2018-09-03T06:36:03.852Z,20.60
2018-09-03T06:38:31.965Z,20.70
2018-09-03T06:41:00.023Z,20.70
2018-09-03T06:43:28.083Z,20.80
2018-09-03T06:45:56.241Z,20.90
2018-09-03T06:48:24.291Z,21.00
2018-09-03T06:50:52.385Z,21.10
2018-09-03T06:53:20.500Z,21.20
2018-09-03T06:55:48.567Z,21.30
2018-09-03T06:58:16.643Z,21.50
2018-09-03T07:00:44.704Z,21.50
2018-09-03T07:03:12.742Z,21.70
2018-09-03T07:05:40.847Z,21.80
2018-09-03T07:08:08.892Z,22.00
2018-09-03T07:10:36.986Z,22.20
2018-09-03T07:13:05.868Z,22.40
2018-09-03T07:15:34.058Z,22.60
2018-09-03T07:18:02.396Z,22.90
2018-09-03T07:20:30.496Z,23.30
2018-09-03T07:22:58.702Z,23.50
2018-09-03T07:25:26.771Z,23.70
2018-09-03T07:27:54.826Z,23.70
2018-09-03T07:30:23.100Z,24.00
2018-09-03T07:32:51.159Z,24.00
2018-09-03T07:35:19.288Z,23.80
2018-09-03T07:37:47.405Z,23.40
2018-09-03T07:40:15.446Z,23.20
2018-09-03T07:42:43.523Z,23.10
2018-09-03T07:45:11.642Z,23.00
2018-09-03T07:47:39.763Z,22.80
2018-09-03T07:50:07.796Z,22.70
2018-09-03T07:52:35.891Z,22.60
2018-09-03T07:55:03.978Z,22.60
2018-09-03T07:57:31.995Z,22.60
2018-09-03T08:00:00.037Z,22.60
2018-09-03T08:02:28.121Z,22.60
2018-09-03T08:04:56.207Z,22.70
2018-09-03T08:07:24.346Z,22.70
2018-09-03T08:09:52.415Z,22.80
2018-09-03T08:12:20.511Z,22.90
2018-09-03T08:14:48.599Z,22.90
2018-09-03T08:17:16.726Z,22.90
2018-09-03T08:19:44.810Z,23.00
2018-09-03T08:22:12.944Z,23.00
2018-09-03T08:24:41.001Z,23.10
2018-09-03T08:27:09.069Z,23.10
2018-09-03T08:29:37.149Z,23.20
2018-09-03T08:32:05.361Z,23.20
2018-09-03T08:34:33.420Z,23.30
2018-09-03T08:37:01.554Z,23.30
2018-09-03T08:39:29.640Z,23.20
2018-09-03T08:41:57.717Z,23.20
2018-09-03T08:44:25.814Z,23.30
2018-09-03T08:46:54.068Z,23.50
2018-09-03T08:49:22.181Z,23.60
2018-09-03T08:51:50.314Z,23.70
2018-09-03T08:54:18.394Z,23.70
2018-09-03T08:56:46.467Z,23.80
2018-09-03T08:59:14.533Z,23.80
2018-09-03T09:01:42.629Z,23.90
2018-09-03T09:04:10.699Z,23.90
2018-09-03T09:06:38.768Z,23.90
2018-09-03T09:09:07.148Z,24.10
2018-09-03T09:11:35.254Z,24.20
2018-09-03T09:14:03.321Z,24.20
2018-09-03T09:16:31.422Z,24.30
2018-09-03T09:18:59.521Z,24.30
2018-09-03T09:21:27.592Z,24.40
2018-09-03T09:23:55.690Z,24.50
2018-09-03T09:26:24.055Z,24.70
2018-09-03T09:28:52.153Z,24.80
2018-09-03T09:31:20.286Z,24.80
2018-09-03T09:33:48.350Z,24.80
2018-09-03T09:36:16.425Z,24.90
2018-09-03T09:38:44.472Z,25.00
2018-09-03T09:41:12.588Z,25.10
2018-09-03T09:43:40.716Z,25.20
2018-09-03T09:46:08.775Z,25.30
2018-09-03T09:48:37.022Z,25.30
2018-09-03T09:51:05.086Z,25.40
2018-09-03T09:53:33.165Z,25.40
2018-09-03T09:56:01.291Z,25.50
2018-09-03T09:58:29.814Z,25.60
2018-09-03T10:01:03.422Z,25.60
2018-09-03T10:03:31.510Z,25.70
2018-09-03T10:05:59.587Z,25.70
2018-09-03T10:08:27.665Z,25.70
2018-09-03T10:10:55.727Z,25.80
2018-09-03T10:13:23.838Z,25.90
2018-09-03T10:15:51.950Z,25.90
2018-09-03T10:18:20.039Z,25.90
2018-09-03T10:20:48.090Z,26.00
2018-09-03T10:23:16.183Z,26.10
2018-09-03T10:25:44.290Z,26.10
2018-09-03T10:28:12.350Z,26.10
2018-09-03T10:30:40.389Z,26.10
2018-09-03T10:33:08.519Z,26.00
2018-09-03T10:35:36.587Z,26.10
2018-09-03T10:38:04.961Z,26.20
2018-09-03T10:40:32.926Z,26.30
2018-09-03T10:43:00.997Z,26.40
2018-09-03T10:45:29.059Z,26.50
2018-09-03T10:47:57.183Z,26.60
2018-09-03T10:50:25.250Z,26.70
2018-09-03T10:52:53.396Z,26.80
2018-09-03T10:55:21.470Z,26.70
2018-09-03T10:57:49.562Z,26.70
2018-09-03T11:00:17.632Z,26.70
2018-09-03T11:02:45.762Z,26.70
2018-09-03T11:05:13.839Z,26.60
2018-09-03T11:07:41.947Z,26.50
2018-09-03T11:10:10.224Z,26.50
2018-09-03T11:12:38.325Z,26.50
2018-09-03T11:15:06.379Z,26.50
2018-09-03T11:17:34.473Z,26.50
2018-09-03T11:20:04.441Z,26.40
2018-09-03T11:22:32.581Z,26.50
2018-09-03T11:25:00.679Z,26.30
2018-09-03T11:27:28.763Z,26.30
2018-09-03T11:29:56.868Z,26.40
2018-09-03T11:32:24.944Z,26.50
2018-09-03T11:34:53.124Z,26.50
2018-09-03T11:37:21.213Z,26.60
2018-09-03T11:39:49.348Z,26.60
2018-09-03T11:42:17.427Z,26.60
2018-09-03T11:44:45.598Z,26.60
2018-09-03T11:47:13.687Z,26.80
2018-09-03T11:49:41.786Z,26.80
2018-09-03T11:52:09.836Z,26.90
2018-09-03T11:54:37.921Z,27.00
2018-09-03T11:57:05.993Z,27.00
2018-09-03T11:59:34.090Z,27.10
2018-09-03T12:02:02.571Z,27.20
2018-09-03T12:04:30.680Z,27.20
2018-09-03T12:06:58.802Z,27.20
2018-09-03T12:09:26.898Z,27.20
2018-09-03T12:11:54.998Z,27.20
2018-09-03T12:14:26.174Z,27.20
2018-09-03T12:16:54.246Z,27.20
2018-09-03T12:19:22.342Z,27.20
2018-09-03T12:21:50.440Z,27.20
2018-09-03T12:24:18.513Z,27.20
2018-09-03T12:26:46.565Z,27.10
2018-09-03T12:29:14.636Z,27.00
2018-09-03T12:31:42.720Z,26.90
2018-09-03T12:34:10.828Z,26.90
2018-09-03T12:36:38.882Z,27.00
2018-09-03T12:39:09.055Z,27.20
2018-09-03T12:41:37.163Z,27.30
2018-09-03T12:44:05.315Z,27.40
2018-09-03T12:46:33.443Z,27.50
2018-09-03T12:49:01.537Z,27.60
2018-09-03T12:51:29.611Z,27.70
2018-09-03T12:53:57.722Z,27.70
2018-09-03T12:56:25.778Z,27.70
2018-09-03T12:58:53.945Z,27.70
2018-09-03T13:01:22.009Z,27.80
2018-09-03T13:03:50.105Z,27.70
2018-09-03T13:06:18.176Z,27.70
2018-09-03T13:08:46.242Z,27.70
2018-09-03T13:11:14.336Z,27.70
2018-09-03T13:13:42.392Z,27.70
2018-09-03T13:16:10.901Z,27.60
2018-09-03T13:18:38.994Z,27.70
2018-09-03T13:21:07.077Z,27.70
2018-09-03T13:23:35.174Z,27.70
2018-09-03T13:26:03.256Z,27.70
2018-09-03T13:28:31.317Z,27.60
2018-09-03T13:30:59.463Z,27.60
2018-09-03T13:33:27.524Z,27.50
2018-09-03T13:35:55.597Z,27.40
2018-09-03T13:38:23.651Z,27.30
2018-09-03T13:40:51.740Z,27.30
2018-09-03T13:43:19.838Z,27.30
2018-09-03T13:45:47.999Z,27.30
2018-09-03T13:48:16.213Z,27.20
2018-09-03T13:50:44.230Z,27.30
2018-09-03T13:53:12.282Z,27.30
2018-09-03T13:55:40.366Z,27.30
2018-09-03T13:58:08.572Z,27.30
2018-09-03T14:00:36.651Z,27.40
2018-09-03T14:03:04.750Z,27.40
2018-09-03T14:05:32.844Z,27.50
2018-09-03T14:08:00.926Z,27.50
2018-09-03T14:10:29.101Z,27.50
2018-09-03T14:12:57.175Z,27.50
2018-09-03T14:15:25.267Z,27.60
2018-09-03T14:17:53.387Z,27.70
2018-09-03T14:20:21.521Z,27.70
2018-09-03T14:22:49.690Z,27.80
2018-09-03T14:25:17.755Z,27.80
2018-09-03T14:27:45.877Z,27.70
2018-09-03T14:30:13.989Z,27.60
2018-09-03T14:32:42.097Z,27.60
2018-09-03T14:35:10.146Z,27.60
2018-09-03T14:37:38.270Z,27.60
2018-09-03T14:40:06.635Z,27.60
2018-09-03T14:42:34.692Z,27.40
2018-09-03T14:45:02.823Z,27.40
2018-09-03T14:47:30.920Z,27.40
2018-09-03T14:49:59.070Z,27.40
2018-09-03T14:52:27.433Z,27.40
2018-09-03T14:54:55.521Z,27.40
2018-09-03T14:57:23.624Z,27.40
2018-09-03T14:59:51.785Z,27.50
2018-09-03T15:02:19.923Z,27.40
2018-09-03T15:04:47.993Z,27.40
2018-09-03T15:07:16.130Z,27.40
2018-09-03T15:09:44.276Z,27.40
2018-09-03T15:12:12.371Z,27.30
2018-09-03T15:14:40.514Z,27.20
2018-09-03T15:17:08.577Z,27.20
2018-09-03T15:19:36.769Z,27.20
2018-09-03T15:22:04.948Z,27.10
2018-09-03T15:24:33.059Z,27.10
2018-09-03T15:27:01.168Z,27.10
2018-09-03T15:29:29.258Z,27.10
2018-09-03T15:31:57.470Z,27.10
2018-09-03T15:34:26.430Z,27.10
2018-09-03T15:36:54.625Z,27.10
2018-09-03T15:39:22.811Z,27.10
2018-09-03T15:41:50.926Z,27.10
2018-09-03T15:44:18.966Z,27.10
2018-09-03T15:46:47.045Z,27.10
2018-09-03T15:49:15.122Z,27.10
2018-09-03T15:51:43.251Z,27.10
2018-09-03T15:54:11.755Z,27.10
2018-09-03T15:56:39.699Z,27.10
2018-09-03T15:59:07.793Z,27.10
2018-09-03T16:01:35.901Z,27.20
2018-09-03T16:04:03.992Z,27.20
2018-09-03T16:06:32.088Z,27.10
2018-09-03T16:09:00.307Z,27.10
2018-09-03T16:11:28.336Z,27.10
2018-09-03T16:13:56.509Z,27.10
2018-09-03T16:16:24.639Z,27.00
2018-09-03T16:18:52.750Z,27.00
2018-09-03T16:21:20.872Z,27.00
2018-09-03T16:23:48.963Z,27.00
2018-09-03T16:26:17.076Z,26.90
2018-09-03T16:28:45.221Z,26.90
2018-09-03T16:31:13.327Z,26.80
2018-09-03T16:33:41.471Z,26.80
2018-09-03T16:36:09.577Z,26.80
2018-09-03T16:38:37.738Z,26.70
2018-09-03T16:41:05.840Z,26.60
2018-09-03T16:43:33.939Z,26.60
2018-09-03T16:46:02.124Z,26.50
2018-09-03T16:48:30.229Z,26.50
2018-09-03T16:50:58.313Z,26.50
2018-09-03T16:53:26.383Z,26.40
2018-09-03T16:55:54.462Z,26.30
2018-09-03T16:58:22.562Z,26.20
2018-09-03T17:00:50.712Z,26.20
2018-09-03T17:03:18.864Z,26.10
2018-09-03T17:05:46.943Z,26.10
2018-09-03T17:08:15.123Z,25.90
2018-09-03T17:10:43.309Z,25.80
2018-09-03T17:13:11.416Z,25.70
2018-09-03T17:15:39.509Z,25.60
2018-09-03T17:18:07.621Z,25.60
2018-09-03T17:20:35.744Z,25.60
2018-09-03T17:23:03.847Z,25.50
2018-09-03T17:25:31.942Z,25.30
2018-09-03T17:28:00.024Z,25.30
2018-09-03T17:30:28.086Z,25.10
2018-09-03T17:32:56.218Z,25.10
2018-09-03T17:35:24.305Z,25.10
2018-09-03T17:37:52.433Z,25.00
2018-09-03T17:40:20.506Z,25.00
2018-09-03T17:42:48.612Z,24.90
2018-09-03T17:45:16.763Z,24.80
2018-09-03T17:47:44.896Z,24.60
2018-09-03T17:50:13.030Z,24.60
2018-09-03T17:52:41.121Z,24.50
2018-09-03T17:55:09.956Z,24.40
2018-09-03T17:57:38.097Z,24.30
2018-09-03T18:00:06.214Z,24.20
2018-09-03T18:02:34.287Z,24.10
2018-09-03T18:05:02.378Z,24.10
2018-09-03T18:07:30.462Z,24.00
2018-09-03T18:09:58.576Z,24.00
2018-09-03T18:12:26.678Z,23.90
2018-09-03T18:14:54.735Z,23.80
2018-09-03T18:17:22.851Z,23.70
2018-09-03T18:19:51.101Z,23.70
2018-09-03T18:22:19.275Z,23.70
2018-09-03T18:24:47.336Z,23.60
2018-09-03T18:27:15.603Z,23.60
2018-09-03T18:29:43.680Z,23.40
2018-09-03T18:32:11.920Z,23.40
2018-09-03T18:34:40.182Z,23.30
2018-09-03T18:37:08.340Z,23.20
2018-09-03T18:39:36.401Z,23.20
2018-09-03T18:42:04.612Z,23.20
2018-09-03T18:44:32.676Z,23.10
2018-09-03T18:47:00.774Z,23.10
2018-09-03T18:49:28.983Z,23.10
2018-09-03T18:51:57.220Z,23.10
2018-09-03T18:54:27.538Z,22.90
2018-09-03T18:56:55.718Z,23.00
2018-09-03T18:59:23.835Z,22.90
2018-09-03T19:01:51.931Z,22.90
2018-09-03T19:04:20.051Z,22.80
2018-09-03T19:06:48.224Z,22.80
2018-09-03T19:09:16.444Z,22.70
2018-09-03T19:11:44.629Z,22.70
2018-09-03T19:14:12.889Z,22.60
2018-09-03T19:16:41.149Z,22.60
2018-09-03T19:19:09.407Z,22.60
2018-09-03T19:21:39.599Z,22.50
2018-09-03T19:24:08.128Z,22.50
2018-09-03T19:26:36.417Z,22.40
2018-09-03T19:29:04.588Z,22.30
2018-09-03T19:31:33.083Z,22.30
2018-09-03T19:34:01.180Z,22.30
2018-09-03T19:36:29.297Z,22.30
2018-09-03T19:38:57.649Z,22.20
2018-09-03T19:41:25.771Z,22.20
2018-09-03T19:43:53.905Z,22.10
2018-09-03T19:46:22.073Z,22.20
2018-09-03T19:48:50.230Z,22.10
2018-09-03T19:51:18.392Z,22.10
2018-09-03T19:53:46.570Z,22.00
2018-09-03T19:56:14.679Z,22.00
2018-09-03T19:58:43.349Z,21.90
2018-09-03T20:01:11.808Z,21.80
2018-09-03T20:03:39.936Z,21.70
2018-09-03T20:06:08.021Z,21.70
2018-09-03T20:08:36.156Z,21.60
2018-09-03T20:11:04.356Z,21.60
2018-09-03T20:13:32.486Z,21.60
2018-09-03T20:16:00.653Z,21.50
2018-09-03T20:18:28.752Z,21.50
2018-09-03T20:20:56.855Z,21.50
2018-09-03T20:23:25.125Z,21.50
2018-09-03T20:25:53.170Z,21.40
2018-09-03T20:28:21.266Z,21.40
2018-09-03T20:30:49.408Z,21.40
2018-09-03T20:33:17.886Z,21.30
2018-09-03T20:35:46.008Z,21.30
2018-09-03T20:38:14.123Z,21.20
2018-09-03T20:40:42.630Z,21.20
2018-09-03T20:43:10.749Z,21.20
2018-09-03T20:45:38.858Z,21.10
2018-09-03T20:48:07.060Z,21.10
2018-09-03T20:50:35.176Z,21.00
2018-09-03T20:53:03.267Z,21.00
2018-09-03T20:55:31.549Z,20.90
2018-09-03T20:57:59.638Z,20.90
2018-09-03T21:00:27.839Z,20.80
2018-09-03T21:02:55.970Z,20.70
2018-09-03T21:05:24.109Z,20.70
2018-09-03T21:07:52.235Z,20.60
2018-09-03T21:10:20.426Z,20.50
2018-09-03T21:12:48.589Z,20.60
2018-09-03T21:15:16.719Z,20.60
2018-09-03T21:17:45.059Z,20.60
2018-09-03T21:20:13.168Z,20.60
2018-09-03T21:22:41.256Z,20.60
2018-09-03T21:25:09.451Z,20.60
2018-09-03T21:27:37.745Z,20.50
2018-09-03T21:30:06.938Z,20.50
2018-09-03T21:32:35.102Z,20.40
2018-09-03T21:35:03.876Z,20.40
2018-09-03T21:37:31.987Z,20.40
2018-09-03T21:40:00.042Z,20.40
2018-09-03T21:42:28.330Z,20.30
2018-09-03T21:44:56.577Z,20.20
2018-09-03T21:47:24.837Z,20.20
2018-09-03T21:49:53.091Z,20.20
2018-09-03T21:52:21.494Z,20.10
2018-09-03T21:54:49.597Z,20.10
2018-09-03T21:57:17.840Z,20.10
2018-09-03T21:59:46.017Z,20.00
2018-09-03T22:02:14.110Z,19.90
2018-09-03T22:04:42.692Z,19.90
2018-09-03T22:07:11.362Z,19.80
2018-09-03T22:09:39.595Z,19.80
2018-09-03T22:12:08.082Z,19.80
2018-09-03T22:14:36.238Z,19.70
2018-09-03T22:17:04.425Z,19.70
2018-09-03T22:19:32.703Z,19.80
2018-09-03T22:22:00.928Z,19.70
2018-09-03T22:24:29.111Z,19.70
2018-09-03T22:26:57.311Z,19.70
2018-09-03T22:29:25.554Z,19.60
2018-09-03T22:31:53.932Z,19.60
2018-09-03T22:34:22.002Z,19.60
2018-09-03T22:36:50.160Z,19.50
2018-09-03T22:39:18.324Z,19.50
2018-09-03T22:41:46.614Z,19.40
2018-09-03T22:44:14.723Z,19.40
2018-09-03T22:46:42.898Z,19.40
2018-09-03T22:49:10.967Z,19.40
2018-09-03T22:51:40.188Z,19.40
2018-09-03T22:54:08.335Z,19.40
2018-09-03T22:56:36.457Z,19.30
2018-09-03T22:59:04.631Z,19.30
2018-09-03T23:01:32.707Z,19.30
2018-09-03T23:04:00.790Z,19.30
2018-09-03T23:06:29.005Z,19.30
2018-09-03T23:08:57.309Z,19.30
2018-09-03T23:11:25.478Z,19.30
2018-09-03T23:13:53.820Z,19.30
2018-09-03T23:16:21.910Z,19.20
2018-09-03T23:18:50.122Z,19.20
2018-09-03T23:21:20.771Z,19.10
2018-09-03T23:23:50.359Z,19.00
2018-09-03T23:26:19.184Z,19.00
2018-09-03T23:28:47.408Z,18.90
2018-09-03T23:31:15.657Z,18.90
2018-09-03T23:33:44.001Z,18.90
2018-09-03T23:36:12.128Z,18.80
2018-09-03T23:38:40.324Z,18.80
2018-09-03T23:41:08.510Z,18.70
2018-09-03T23:43:36.831Z,18.70
2018-09-03T23:46:04.953Z,18.60
2018-09-03T23:48:33.234Z,18.60
2018-09-03T23:51:01.369Z,18.70
2018-09-03T23:53:29.519Z,18.70
2018-09-03T23:55:57.699Z,18.60
2018-09-03T23:58:25.843Z,18.70
